Time;durP1;ratioP1;P1;durP2;ratioP2;P2;SDS_P1;SDS_P2;PMS_P1;PMS_P2;Temp;Humidity;BMP_temperature;BMP_pressure;BME280_temperature;BME280_humidity;BME280_pressure;Samples;Min_cycle;Max_cycle;Signal;HPM_P1;HPM_P2
2023/04/24 00:01:00;;;;;;;21.38;15.40;;;10.10;99.90;;;;;;5056905;28;20124;-63
2023/04/24 00:03:27;;;;;;;20.92;15.98;;;10.00;99.90;;;;;;5056605;28;20049;-64
2023/04/24 00:05:54;;;;;;;21.90;16.30;;;10.00;99.90;;;;;;5058036;28;20033;-68
2023/04/24 00:08:21;;;;;;;27.23;15.88;;;10.10;99.90;;;;;;5057661;28;20025;-65
2023/04/24 00:10:46;;;;;;;22.20;15.02;;;10.10;99.90;;;;;;5090131;28;20029;-70
2023/04/24 00:13:12;;;;;;;25.58;15.07;;;10.10;99.90;;;;;;5073309;28;20094;-67
2023/04/24 00:15:38;;;;;;;25.33;15.32;;;10.10;99.90;;;;;;5090682;28;20036;-63
2023/04/24 00:18:04;;;;;;;24.35;16.02;;;10.10;99.90;;;;;;5090697;28;20043;-65
2023/04/24 00:20:32;;;;;;;24.98;16.00;;;10.10;99.90;;;;;;5056471;28;20134;-68
2023/04/24 00:22:58;;;;;;;23.75;16.52;;;10.20;99.90;;;;;;5057209;28;20362;-64
2023/04/24 00:25:24;;;;;;;26.65;16.25;;;10.20;99.90;;;;;;5090460;28;20029;-73
2023/04/24 00:27:50;;;;;;;29.50;17.10;;;10.30;99.90;;;;;;5056367;28;20127;-65
2023/04/24 00:30:16;;;;;;;26.02;16.98;;;10.30;99.90;;;;;;5057246;28;20052;-65
2023/04/24 00:32:41;;;;;;;26.92;18.27;;;10.30;99.90;;;;;;5057100;28;20408;-69
2023/04/24 00:35:07;;;;;;;27.05;18.35;;;10.30;99.90;;;;;;5072975;28;20037;-67
2023/04/24 00:37:33;;;;;;;25.75;17.73;;;10.40;99.90;;;;;;5089802;28;20372;-71
2023/04/24 00:39:59;;;;;;;27.70;18.98;;;10.30;99.90;;;;;;5057704;28;20029;-70
2023/04/24 00:42:25;;;;;;;22.05;16.95;;;10.20;99.90;;;;;;5056164;28;20277;-67
2023/04/24 00:44:52;;;;;;;25.15;17.55;;;10.30;99.90;;;;;;5089561;28;20057;-69
2023/04/24 00:47:20;;;;;;;26.25;18.25;;;10.20;99.90;;;;;;5056077;28;20052;-67
2023/04/24 00:49:45;;;;;;;23.55;17.67;;;10.40;99.90;;;;;;5056125;28;20040;-66
2023/04/24 00:52:12;;;;;;;26.20;16.90;;;10.40;99.90;;;;;;5056890;28;20076;-70
2023/04/24 00:54:38;;;;;;;24.60;17.00;;;10.30;99.90;;;;;;5089769;28;20029;-70
2023/04/24 00:57:04;;;;;;;26.15;17.17;;;10.40;99.90;;;;;;5056024;28;20127;-71
2023/04/24 00:59:30;;;;;;;22.30;16.65;;;10.40;99.90;;;;;;5072582;28;20095;-67
2023/04/24 01:01:57;;;;;;;21.48;16.95;;;10.30;99.90;;;;;;5089561;28;20061;-67
2023/04/24 01:04:23;;;;;;;22.13;16.42;;;10.10;99.90;;;;;;5055796;28;20049;-69
2023/04/24 01:06:50;;;;;;;25.83;17.15;;;10.00;99.90;;;;;;5089251;28;20048;-70
2023/04/24 01:09:17;;;;;;;22.63;16.73;;;10.00;99.90;;;;;;5056652;28;20090;-66
2023/04/24 01:11:43;;;;;;;23.95;16.67;;;10.00;99.90;;;;;;5056741;28;20037;-66
2023/04/24 01:14:09;;;;;;;21.73;16.13;;;9.90;99.90;;;;;;5089326;28;20392;-66
2023/04/24 01:16:38;;;;;;;21.25;16.52;;;9.90;99.90;;;;;;5089784;28;20037;-64
2023/04/24 01:19:06;;;;;;;22.55;16.42;;;9.90;99.90;;;;;;5055891;28;20206;-69
2023/04/24 01:21:37;;;;;;;24.17;17.10;;;9.90;99.90;;;;;;5089497;28;20308;-68
2023/04/24 01:24:04;;;;;;;20.58;16.50;;;9.90;99.90;;;;;;5089396;28;20099;-67
2023/04/24 01:26:30;;;;;;;22.25;16.80;;;9.90;99.90;;;;;;5089195;28;20036;-69
2023/04/24 01:28:56;;;;;;;22.88;15.07;;;9.80;99.90;;;;;;5056551;28;20033;-69
2023/04/24 01:31:22;;;;;;;20.70;15.23;;;9.70;99.90;;;;;;5089263;28;20021;-67
2023/04/24 01:33:49;;;;;;;21.23;15.73;;;9.70;99.90;;;;;;5089287;28;20112;-66
2023/04/24 01:36:17;;;;;;;18.17;15.15;;;9.80;99.90;;;;;;5089289;28;20030;-69
2023/04/24 01:38:44;;;;;;;17.52;12.93;;;9.80;99.90;;;;;;5089091;28;20087;-65
2023/04/24 01:41:10;;;;;;;17.98;12.63;;;9.90;99.90;;;;;;5056363;28;20060;-66
2023/04/24 01:43:36;;;;;;;14.38;11.02;;;9.80;99.90;;;;;;5089031;28;20328;-69
2023/04/24 01:46:02;;;;;;;18.13;11.52;;;9.90;99.90;;;;;;5089173;28;20052;-67
2023/04/24 01:48:28;;;;;;;16.38;11.23;;;9.80;99.90;;;;;;5055501;28;20383;-64
2023/04/24 01:50:54;;;;;;;14.43;10.90;;;9.90;99.90;;;;;;5055532;28;20056;-65
2023/04/24 01:53:20;;;;;;;13.45;10.20;;;9.90;99.90;;;;;;5056330;28;20033;-67
2023/04/24 01:55:46;;;;;;;14.60;9.88;;;10.00;99.90;;;;;;5088928;28;20087;-71
2023/04/24 01:58:12;;;;;;;14.77;11.15;;;9.80;99.90;;;;;;5072028;28;20467;-65
2023/04/24 02:00:38;;;;;;;14.60;11.35;;;9.80;99.90;;;;;;5072103;28;20140;-66
2023/04/24 02:03:04;;;;;;;14.40;10.88;;;9.80;99.90;;;;;;5088640;28;20068;-65
2023/04/24 02:05:30;;;;;;;16.38;11.10;;;9.80;99.90;;;;;;5088947;28;20029;-67
2023/04/24 02:07:56;;;;;;;12.88;10.50;;;9.80;99.90;;;;;;5055338;28;20056;-65
2023/04/24 02:10:22;;;;;;;15.48;11.13;;;9.80;99.90;;;;;;5089219;28;20033;-64
2023/04/24 02:12:48;;;;;;;16.08;10.75;;;9.80;99.90;;;;;;5058919;28;20265;-64
2023/04/24 02:15:14;;;;;;;15.07;11.23;;;9.90;99.90;;;;;;5058987;28;20043;-64
2023/04/24 02:17:40;;;;;;;14.90;11.20;;;10.00;99.90;;;;;;5059709;28;20021;-66
2023/04/24 02:20:07;;;;;;;17.35;11.07;;;10.10;99.90;;;;;;5092551;28;20032;-66
2023/04/24 02:22:33;;;;;;;16.42;10.95;;;10.00;99.90;;;;;;5059515;28;20036;-65
2023/04/24 02:25:01;;;;;;;13.80;10.75;;;9.90;99.90;;;;;;5059458;28;20025;-71
2023/04/24 02:27:27;;;;;;;19.23;11.65;;;10.00;99.90;;;;;;5059449;28;20025;-67
2023/04/24 02:29:53;;;;;;;15.98;11.30;;;10.00;99.90;;;;;;5059510;28;20051;-69
2023/04/24 02:32:19;;;;;;;13.95;11.40;;;9.90;99.90;;;;;;5075242;28;20021;-73
2023/04/24 02:34:44;;;;;;;13.18;11.57;;;9.90;99.90;;;;;;5075289;28;20431;-68
2023/04/24 02:37:11;;;;;;;13.63;11.70;;;9.90;99.90;;;;;;5059457;28;20029;-65
2023/04/24 02:39:37;;;;;;;12.93;11.48;;;9.70;99.90;;;;;;5092024;28;20032;-63
2023/04/24 02:42:03;;;;;;;13.27;11.40;;;9.70;99.90;;;;;;5075230;28;20047;-65
2023/04/24 02:44:30;;;;;;;12.40;11.18;;;9.60;99.90;;;;;;5058266;28;20303;-64
2023/04/24 02:46:55;;;;;;;12.35;10.18;;;9.50;99.90;;;;;;5059087;28;20111;-71
2023/04/24 02:49:22;;;;;;;12.00;10.35;;;9.50;99.90;;;;;;5074945;28;20028;-69
2023/04/24 02:51:48;;;;;;;12.38;10.20;;;9.60;99.90;;;;;;5074848;28;20086;-65
2023/04/24 02:54:14;;;;;;;16.80;10.15;;;9.60;99.90;;;;;;5058955;28;20037;-66
2023/04/24 02:56:40;;;;;;;12.02;10.50;;;9.50;99.90;;;;;;5091612;28;20056;-66
2023/04/24 02:59:07;;;;;;;11.50;9.70;;;9.50;99.90;;;;;;5091698;28;20033;-67
2023/04/24 03:01:34;;;;;;;12.88;10.57;;;9.30;99.90;;;;;;5058085;28;20033;-64
2023/04/24 03:04:00;;;;;;;12.93;10.38;;;9.30;99.90;;;;;;5058596;28;20324;-65
2023/04/24 03:06:26;;;;;;;12.52;10.68;;;9.40;99.90;;;;;;5091511;28;20036;-67
2023/04/24 03:08:53;;;;;;;13.77;10.18;;;9.40;99.90;;;;;;5058796;28;20036;-68
2023/04/24 03:11:19;;;;;;;14.82;10.43;;;9.30;99.90;;;;;;5058784;28;20036;-66
2023/04/24 03:13:44;;;;;;;13.93;11.07;;;9.30;99.90;;;;;;5058739;28;20036;-71
2023/04/24 03:16:10;;;;;;;13.25;10.88;;;9.20;99.90;;;;;;5091939;28;20098;-69
2023/04/24 03:18:36;;;;;;;14.45;11.52;;;9.30;99.90;;;;;;5057860;28;20060;-66
2023/04/24 03:21:03;;;;;;;15.63;11.93;;;9.30;99.90;;;;;;5074049;28;20308;-71
2023/04/24 03:23:30;;;;;;;14.65;12.57;;;9.20;99.90;;;;;;5074408;28;20037;-72
2023/04/24 03:25:56;;;;;;;14.63;12.73;;;9.20;99.90;;;;;;5074390;28;20051;-70
2023/04/24 03:28:22;;;;;;;15.88;13.05;;;9.30;99.90;;;;;;5074353;28;20308;-69
2023/04/24 03:30:56;;;;;;;18.50;13.38;;;9.40;99.90;;;;;;5057614;28;20115;-66
2023/04/24 03:33:23;;;;;;;20.48;14.48;;;9.30;99.90;;;;;;5057499;28;20056;-67
2023/04/24 03:36:00;;;;;;;17.15;14.13;;;9.30;99.90;;;;;;5090998;28;20338;-60
2023/04/24 03:38:30;;;;;;;18.88;14.77;;;9.30;99.90;;;;;;5057402;28;20048;-63
2023/04/24 03:41:17;;;;;;;16.65;13.63;;;9.30;99.90;;;;;;5090899;28;20033;-64
2023/04/24 03:43:49;;;;;;;15.82;13.07;;;9.30;99.90;;;;;;5058314;28;20342;-62
2023/04/24 03:46:16;;;;;;;17.00;13.32;;;9.30;99.90;;;;;;5057178;28;20115;-60
2023/04/24 03:48:47;;;;;;;15.97;12.27;;;9.30;99.90;;;;;;5090759;28;20025;-60
2023/04/24 03:51:15;;;;;;;18.35;12.10;;;9.20;99.90;;;;;;5057152;28;20119;-59
2023/04/24 03:53:44;;;;;;;15.95;10.52;;;9.30;99.90;;;;;;5057094;28;20037;-62
2023/04/24 03:56:12;;;;;;;16.13;10.43;;;9.20;99.90;;;;;;5057038;28;20538;-59
2023/04/24 03:58:37;;;;;;;13.23;8.60;;;9.20;99.90;;;;;;5058279;28;20122;-59
2023/04/24 04:01:05;;;;;;;11.98;8.35;;;9.10;99.90;;;;;;5056953;28;20292;-61
2023/04/24 04:03:54;;;;;;;15.52;7.85;;;9.10;99.90;;;;;;5083323;28;20459;-59
2023/04/24 04:06:23;;;;;;;11.95;8.18;;;9.20;99.90;;;;;;5057606;28;20037;-61
2023/04/24 04:08:50;;;;;;;12.13;8.77;;;9.30;99.90;;;;;;5090190;28;20021;-59
2023/04/24 04:11:16;;;;;;;17.48;9.48;;;9.40;99.90;;;;;;5057495;28;20029;-58
2023/04/24 04:13:45;;;;;;;15.35;10.63;;;9.30;99.90;;;;;;5090162;28;20032;-58
2023/04/24 04:16:11;;;;;;;14.85;9.15;;;9.20;99.90;;;;;;5090114;28;20041;-58
2023/04/24 04:18:37;;;;;;;14.57;9.43;;;9.20;99.90;;;;;;5056592;28;20028;-58
2023/04/24 04:21:05;;;;;;;17.42;11.75;;;9.20;99.90;;;;;;5056786;28;20457;-58
2023/04/24 04:23:31;;;;;;;16.67;11.50;;;9.20;99.90;;;;;;5056408;28;20335;-58
2023/04/24 04:26:11;;;;;;;22.05;14.27;;;9.20;99.90;;;;;;5041482;28;20048;-57
2023/04/24 04:29:03;;;;;;;18.45;13.10;;;9.30;99.90;;;;;;5055174;28;20388;-57
2023/04/24 04:31:30;;;;;;;22.42;13.48;;;9.20;99.90;;;;;;5089481;28;20025;-59
2023/04/24 04:34:01;;;;;;;16.13;11.07;;;9.20;99.90;;;;;;5072167;28;20028;-58
2023/04/24 04:36:29;;;;;;;18.00;11.10;;;9.10;99.90;;;;;;5056354;28;20281;-60
2023/04/24 04:39:02;;;;;;;16.63;10.88;;;8.90;99.90;;;;;;5056301;28;20048;-59
2023/04/24 04:41:51;;;;;;;18.83;11.43;;;8.90;99.90;;;;;;5069776;28;20043;-59
2023/04/24 04:44:19;;;;;;;17.67;12.02;;;8.90;99.90;;;;;;5089995;28;20064;-57
2023/04/24 04:46:45;;;;;;;21.27;14.38;;;9.00;99.90;;;;;;5089949;28;20392;-58
2023/04/24 04:49:23;;;;;;;30.80;18.77;;;9.00;99.90;;;;;;5057062;28;20053;-59
2023/04/24 04:51:50;;;;;;;31.95;18.80;;;9.10;99.90;;;;;;5056087;28;20071;-58
2023/04/24 04:54:17;;;;;;;26.63;16.15;;;9.00;99.90;;;;;;5072402;28;20037;-57
2023/04/24 04:56:43;;;;;;;24.02;15.45;;;8.90;99.90;;;;;;5056002;28;20043;-58
2023/04/24 04:59:09;;;;;;;26.33;16.45;;;8.80;99.90;;;;;;5072543;28;20037;-57
2023/04/24 05:01:37;;;;;;;26.15;16.00;;;8.80;99.90;;;;;;5055694;28;20043;-59
2023/04/24 05:04:05;;;;;;;28.65;16.40;;;8.80;99.90;;;;;;5055626;28;20467;-59
2023/04/24 05:06:31;;;;;;;26.27;15.70;;;8.70;99.90;;;;;;5073176;28;20254;-60
2023/04/24 05:08:58;;;;;;;30.90;16.30;;;8.60;99.90;;;;;;5072451;28;20029;-59
2023/04/24 05:11:50;;;;;;;26.30;15.43;;;8.70;99.90;;;;;;5054585;28;20102;-60
2023/04/24 05:14:17;;;;;;;32.95;15.45;;;8.70;99.90;;;;;;5056012;28;20036;-61
2023/04/24 05:16:44;;;;;;;24.38;14.55;;;8.80;99.90;;;;;;5089379;28;20215;-60
2023/04/24 05:19:11;;;;;;;25.08;15.23;;;8.70;99.90;;;;;;5055594;28;20075;-60
2023/04/24 05:21:40;;;;;;;25.50;14.48;;;8.70;99.90;;;;;;5055758;28;20346;-60
2023/04/24 05:24:07;;;;;;;24.85;12.88;;;8.80;99.90;;;;;;5055600;28;20029;-59
2023/04/24 05:26:58;;;;;;;29.10;15.68;;;8.60;99.90;;;;;;5055694;28;20392;-58
2023/04/24 05:29:31;;;;;;;23.98;13.35;;;8.70;99.90;;;;;;5055855;28;20025;-59
2023/04/24 05:31:57;;;;;;;17.38;11.00;;;8.70;99.90;;;;;;5056488;28;20033;-59
2023/04/24 05:34:24;;;;;;;16.40;10.35;;;8.60;99.90;;;;;;5055763;28;20033;-58
2023/04/24 05:36:54;;;;;;;14.85;9.45;;;8.50;99.90;;;;;;5089377;28;20111;-58
2023/04/24 05:39:20;;;;;;;18.98;10.00;;;8.50;99.90;;;;;;5055756;28;20071;-59
2023/04/24 05:41:46;;;;;;;18.70;9.63;;;8.50;99.90;;;;;;5055578;28;20025;-60
2023/04/24 05:44:12;;;;;;;17.88;10.13;;;8.60;99.90;;;;;;5088958;28;20047;-61
2023/04/24 05:46:38;;;;;;;16.10;9.90;;;8.50;99.90;;;;;;5058725;28;20081;-60
2023/04/24 05:49:03;;;;;;;17.83;10.02;;;8.50;99.90;;;;;;5059385;28;20033;-60
2023/04/24 05:51:31;;;;;;;17.02;9.88;;;8.70;99.90;;;;;;5059791;28;20025;-59
2023/04/24 05:53:57;;;;;;;17.10;10.80;;;8.60;99.90;;;;;;5076047;28;20102;-60
2023/04/24 05:56:24;;;;;;;20.65;11.45;;;8.70;99.90;;;;;;5059567;28;20037;-60
2023/04/24 05:58:50;;;;;;;19.50;11.45;;;8.70;99.90;;;;;;5059546;28;20395;-60
2023/04/24 06:01:16;;;;;;;20.63;12.52;;;8.70;99.90;;;;;;5059175;28;20127;-60
2023/04/24 06:03:45;;;;;;;21.92;12.50;;;8.80;99.90;;;;;;5075097;28;20045;-60
2023/04/24 06:06:11;;;;;;;27.08;13.40;;;8.70;99.90;;;;;;5059920;28;20025;-59
2023/04/24 06:08:37;;;;;;;26.35;14.38;;;8.90;99.90;;;;;;5060017;28;20029;-60
2023/04/24 06:11:03;;;;;;;24.23;15.15;;;8.80;99.90;;;;;;5059758;28;20025;-61
2023/04/24 06:13:29;;;;;;;27.70;16.33;;;8.80;99.90;;;;;;5058977;28;20063;-61
2023/04/24 06:16:15;;;;;;;32.33;18.58;;;8.70;99.90;;;;;;5059782;28;20080;-59
2023/04/24 06:18:46;;;;;;;43.97;22.50;;;8.80;99.90;;;;;;5058947;28;20423;-60
2023/04/24 06:21:13;;;;;;;46.22;24.77;;;9.00;99.90;;;;;;5059700;28;20061;-60
2023/04/24 06:23:39;;;;;;;42.95;24.20;;;9.00;99.90;;;;;;5092305;28;20158;-61
2023/04/24 06:26:04;;;;;;;38.08;22.58;;;9.00;99.90;;;;;;5059539;28;20039;-61
2023/04/24 06:28:31;;;;;;;42.28;19.85;;;9.20;99.90;;;;;;5059756;28;20284;-60
2023/04/24 06:30:57;;;;;;;26.40;16.55;;;9.10;99.90;;;;;;5059530;28;20028;-60
2023/04/24 06:33:23;;;;;;;31.70;19.88;;;9.50;99.90;;;;;;5059345;28;20083;-59
2023/04/24 06:35:49;;;;;;;34.20;19.60;;;9.30;99.90;;;;;;5059663;28;20040;-61
2023/04/24 06:38:15;;;;;;;31.98;18.75;;;9.20;99.90;;;;;;5059229;28;20350;-62
2023/04/24 06:40:41;;;;;;;37.58;20.70;;;9.20;99.90;;;;;;5091951;28;20062;-61
2023/04/24 06:43:07;;;;;;;40.28;23.55;;;9.00;99.90;;;;;;5059091;28;20300;-63
2023/04/24 06:45:34;;;;;;;36.75;22.15;;;9.00;99.90;;;;;;5058420;28;20021;-59
2023/04/24 06:47:59;;;;;;;34.08;20.58;;;9.10;99.90;;;;;;5059139;28;20044;-62
2023/04/24 06:50:25;;;;;;;34.13;19.63;;;9.20;99.90;;;;;;5091747;28;20029;-61
2023/04/24 06:52:51;;;;;;;35.47;18.58;;;9.30;99.90;;;;;;5059405;28;20036;-62
2023/04/24 06:55:17;;;;;;;31.88;19.38;;;9.40;99.90;;;;;;5058988;28;20071;-60
2023/04/24 06:57:43;;;;;;;37.10;19.30;;;9.30;99.90;;;;;;5058594;28;20037;-61
2023/04/24 07:00:10;;;;;;;32.90;17.20;;;9.20;99.90;;;;;;5091460;28;20048;-59
2023/04/24 07:02:37;;;;;;;33.38;18.02;;;9.30;99.90;;;;;;5058657;28;20029;-59
2023/04/24 07:05:04;;;;;;;32.05;15.85;;;9.30;99.90;;;;;;5091092;28;20033;-59
2023/04/24 07:07:29;;;;;;;28.95;14.48;;;9.30;99.90;;;;;;5058062;28;20041;-60
2023/04/24 07:09:57;;;;;;;20.65;10.75;;;9.20;99.90;;;;;;5058734;28;20025;-59
2023/04/24 07:12:23;;;;;;;22.42;9.48;;;9.20;99.90;;;;;;5058670;28;20037;-60
2023/04/24 07:14:50;;;;;;;18.60;8.20;;;9.20;99.90;;;;;;5058690;28;20071;-60
2023/04/24 07:17:16;;;;;;;18.85;7.85;;;9.20;99.90;;;;;;5059053;28;20048;-60
2023/04/24 07:19:42;;;;;;;17.33;7.40;;;9.20;99.90;;;;;;5091388;28;20075;-60
2023/04/24 07:22:08;;;;;;;17.80;7.32;;;9.20;99.90;;;;;;5058506;28;20058;-59
2023/04/24 07:24:34;;;;;;;20.75;7.85;;;9.20;99.90;;;;;;5057628;28;20443;-60
2023/04/24 07:27:03;;;;;;;20.00;7.32;;;9.30;99.90;;;;;;5058379;28;20052;-61
2023/04/24 07:29:28;;;;;;;15.07;6.80;;;9.30;99.90;;;;;;5058400;28;20292;-63
2023/04/24 07:31:54;;;;;;;17.85;7.10;;;9.40;99.90;;;;;;5058331;28;20044;-64
2023/04/24 07:34:20;;;;;;;13.57;6.10;;;9.60;99.90;;;;;;5058201;28;20037;-62
2023/04/24 07:36:47;;;;;;;13.30;6.03;;;9.60;99.90;;;;;;5091116;28;20342;-63
2023/04/24 07:39:13;;;;;;;18.15;6.20;;;9.70;99.90;;;;;;5058307;28;20121;-67
2023/04/24 07:41:38;;;;;;;14.50;5.35;;;9.90;99.90;;;;;;5074612;28;20068;-66
2023/04/24 07:44:04;;;;;;;12.25;4.45;;;9.90;99.90;;;;;;5090641;28;20343;-63
2023/04/24 07:46:30;;;;;;;12.38;4.65;;;9.90;99.90;;;;;;5058442;28;20033;-67
2023/04/24 07:48:56;;;;;;;9.90;4.55;;;9.90;99.90;;;;;;5057843;28;20036;-62
2023/04/24 07:51:22;;;;;;;14.90;4.47;;;9.90;99.90;;;;;;5057935;28;20040;-66
2023/04/24 07:53:48;;;;;;;14.60;4.60;;;9.80;99.90;;;;;;5057745;28;20040;-66
2023/04/24 07:56:14;;;;;;;8.15;3.85;;;9.90;99.90;;;;;;5073557;28;20136;-64
2023/04/24 07:58:40;;;;;;;14.07;4.05;;;9.90;99.90;;;;;;5057750;28;20120;-67
2023/04/24 08:01:06;;;;;;;13.80;3.95;;;10.10;99.90;;;;;;5073478;28;20037;-68
2023/04/24 08:03:32;;;;;;;13.18;3.90;;;10.40;99.90;;;;;;5057314;28;20089;-69
2023/04/24 08:05:58;;;;;;;18.98;4.88;;;10.50;99.90;;;;;;5074054;28;20336;-70
2023/04/24 08:08:25;;;;;;;12.18;3.65;;;10.60;99.90;;;;;;5056869;28;20045;-66
2023/04/24 08:10:51;;;;;;;13.80;4.10;;;10.60;99.90;;;;;;5058160;28;20391;-66
2023/04/24 08:13:17;;;;;;;14.35;3.63;;;10.30;99.90;;;;;;5090335;28;20036;-69
2023/04/24 08:15:43;;;;;;;11.40;3.95;;;10.10;99.90;;;;;;5057468;28;20033;-69
2023/04/24 08:18:11;;;;;;;17.65;4.63;;;10.10;99.90;;;;;;5056665;28;20309;-67
2023/04/24 08:20:37;;;;;;;14.68;5.32;;;10.10;99.90;;;;;;5090145;28;20327;-66
2023/04/24 08:23:03;;;;;;;25.10;6.22;;;10.00;99.90;;;;;;5057582;28;20033;-68
2023/04/24 08:25:29;;;;;;;19.33;7.15;;;9.90;99.90;;;;;;5057334;28;20068;-70
2023/04/24 08:27:55;;;;;;;18.63;6.68;;;10.00;99.90;;;;;;5056470;28;20036;-62
2023/04/24 08:30:21;;;;;;;15.82;7.28;;;9.90;99.90;;;;;;5057298;28;20464;-69
2023/04/24 08:32:47;;;;;;;19.75;7.63;;;9.90;99.90;;;;;;5089979;28;20044;-69
2023/04/24 08:35:13;;;;;;;25.63;8.52;;;10.00;99.90;;;;;;5057208;28;20124;-67
2023/04/24 08:37:39;;;;;;;19.98;7.70;;;10.10;99.90;;;;;;5089970;28;20060;-67
2023/04/24 08:40:13;;;;;;;16.83;6.90;;;10.10;99.90;;;;;;5090083;28;20037;-71
2023/04/24 08:42:41;;;;;;;12.73;6.10;;;10.00;99.90;;;;;;5057448;28;20043;-68
2023/04/24 08:45:08;;;;;;;18.05;6.40;;;10.00;99.90;;;;;;5057066;28;20035;-66
2023/04/24 08:47:35;;;;;;;12.90;5.07;;;10.20;99.90;;;;;;5073013;28;20032;-63
2023/04/24 08:50:03;;;;;;;15.75;4.55;;;10.30;99.90;;;;;;5056279;28;20386;-66
2023/04/24 08:52:29;;;;;;;11.98;4.15;;;10.40;99.90;;;;;;5089740;28;20037;-68
2023/04/24 08:54:56;;;;;;;12.98;4.65;;;10.60;99.90;;;;;;5056980;28;20106;-68
2023/04/24 08:57:22;;;;;;;16.48;3.92;;;10.70;99.90;;;;;;5089885;28;20303;-64
2023/04/24 08:59:49;;;;;;;11.48;4.13;;;10.80;99.90;;;;;;5090016;28;20117;-63
2023/04/24 09:02:16;;;;;;;15.10;3.92;;;10.90;99.90;;;;;;5056833;28;20066;-68
2023/04/24 09:04:44;;;;;;;13.30;3.92;;;10.80;99.90;;;;;;5055930;28;20075;-68
2023/04/24 09:07:11;;;;;;;12.70;3.88;;;10.70;99.90;;;;;;5089596;28;20040;-69
2023/04/24 09:09:39;;;;;;;9.68;3.10;;;10.70;99.90;;;;;;5056070;28;20295;-64
2023/04/24 09:12:05;;;;;;;13.20;3.78;;;10.70;99.90;;;;;;5056752;28;20021;-69
2023/04/24 09:14:32;;;;;;;12.25;4.03;;;10.60;99.90;;;;;;5055935;28;20037;-64
2023/04/24 09:16:57;;;;;;;12.38;4.05;;;10.40;99.90;;;;;;5056725;28;20025;-63
2023/04/24 09:19:23;;;;;;;18.75;4.70;;;10.40;99.90;;;;;;5057075;28;20028;-66
2023/04/24 09:21:52;;;;;;;17.50;5.22;;;10.30;99.90;;;;;;5060095;28;20308;-67
2023/04/24 09:24:22;;;;;;;12.02;4.65;;;10.30;99.90;;;;;;5059927;28;20037;-68
2023/04/24 09:26:57;;;;;;;14.35;5.38;;;10.40;99.90;;;;;;5060084;28;20036;-68
2023/04/24 09:29:23;;;;;;;14.43;5.10;;;10.60;99.90;;;;;;5075379;28;20443;-67
2023/04/24 09:31:49;;;;;;;11.60;4.63;;;10.60;99.90;;;;;;5076687;28;20178;-68
2023/04/24 09:34:22;;;;;;;12.48;4.45;;;10.70;99.90;;;;;;5059902;28;20120;-66
2023/04/24 09:36:48;;;;;;;18.60;4.45;;;10.60;99.90;;;;;;5060568;28;20025;-66
2023/04/24 09:39:16;;;;;;;14.55;4.07;;;10.80;99.90;;;;;;5059664;28;20040;-67
2023/04/24 09:41:46;;;;;;;14.27;3.88;;;10.90;99.90;;;;;;5059663;28;20033;-65
2023/04/24 09:44:15;;;;;;;11.25;3.90;;;10.80;99.90;;;;;;5042953;28;20375;-69
2023/04/24 09:46:49;;;;;;;12.13;3.40;;;10.90;99.90;;;;;;5076325;28;20121;-68
2023/04/24 09:49:20;;;;;;;12.13;3.33;;;11.00;99.90;;;;;;5060705;28;20037;-67
2023/04/24 09:51:46;;;;;;;10.73;3.78;;;11.30;99.90;;;;;;5060141;28;20056;-67
2023/04/24 09:54:20;;;;;;;13.07;3.75;;;11.40;95.40;;;;;;5059382;28;20064;-67
2023/04/24 09:56:50;;;;;;;8.15;3.53;;;11.30;97.10;;;;;;5093040;28;20037;-63
2023/04/24 09:59:18;;;;;;;9.85;4.07;;;11.40;91.50;;;;;;5060541;28;20033;-63
2023/04/24 10:01:45;;;;;;;11.27;3.80;;;11.40;91.50;;;;;;5059872;28;20473;-68
2023/04/24 10:04:21;;;;;;;7.97;3.00;;;11.40;92.00;;;;;;5075424;28;20114;-67
2023/04/24 10:06:48;;;;;;;7.25;2.60;;;11.20;74.10;;;;;;5092799;28;20452;-69
2023/04/24 10:09:15;;;;;;;3.88;2.28;;;11.30;82.30;;;;;;5092543;28;20102;-67
2023/04/24 10:11:47;;;;;;;5.20;2.40;;;11.60;54.80;;;;;;5059926;28;20044;-71
2023/04/24 10:14:17;;;;;;;2.42;1.30;;;12.00;48.60;;;;;;5042508;28;20095;-65
2023/04/24 10:16:46;;;;;;;4.07;1.45;;;12.40;3.20;;;;;;5059858;28;20033;-65
2023/04/24 10:19:13;;;;;;;3.90;1.70;;;12.40;1.00;;;;;;5091567;28;20036;-70
2023/04/24 10:21:42;;;;;;;2.85;1.40;;;12.50;1.00;;;;;;5075285;28;20106;-69
2023/04/24 10:24:12;;;;;;;5.15;1.48;;;12.50;1.00;;;;;;5092247;28;20028;-68
2023/04/24 10:26:40;;;;;;;4.32;1.80;;;12.70;1.00;;;;;;5059521;28;20037;-65
2023/04/24 10:29:09;;;;;;;3.25;1.50;;;12.80;1.00;;;;;;5058845;28;20028;-70
2023/04/24 10:31:36;;;;;;;4.82;1.75;;;13.10;1.00;;;;;;5057516;28;20057;-66
2023/04/24 10:34:04;;;;;;;4.35;1.77;;;12.90;1.00;;;;;;5092285;28;20065;-62
2023/04/24 10:36:32;;;;;;;6.55;1.83;;;12.50;1.00;;;;;;5058645;28;20357;-62
2023/04/24 10:39:02;;;;;;;2.85;1.67;;;12.20;1.00;;;;;;5059357;28;20040;-68
2023/04/24 10:41:31;;;;;;;6.03;1.60;;;12.00;1.00;;;;;;5059528;28;20059;-68
2023/04/24 10:44:07;;;;;;;3.67;1.60;;;12.00;1.00;;;;;;5059275;28;20410;-69
2023/04/24 10:46:34;;;;;;;7.43;1.77;;;12.40;1.00;;;;;;5058554;28;20361;-70
2023/04/24 10:49:06;;;;;;;6.80;1.88;;;12.90;1.00;;;;;;5058288;28;20123;-65
2023/04/24 10:51:47;;;;;;;5.63;1.70;;;13.20;1.00;;;;;;5092693;28;20152;-66
2023/04/24 10:54:30;;;;;;;5.85;1.63;;;13.60;1.00;;;;;;5091895;28;20036;-73
2023/04/24 10:57:21;;;;;;;7.15;2.03;;;13.90;1.00;;;;;;5059370;28;20078;-68
2023/04/24 10:59:50;;;;;;;5.18;2.15;;;13.80;1.00;;;;;;5059013;28;20025;-64
2023/04/24 11:02:17;;;;;;;6.63;2.35;;;13.30;1.00;;;;;;5058114;28;20028;-69
2023/04/24 11:04:43;;;;;;;5.43;2.10;;;13.20;1.00;;;;;;5058728;28;20041;-63
2023/04/24 11:07:10;;;;;;;4.43;2.10;;;13.40;1.00;;;;;;5091557;28;20032;-64
2023/04/24 11:09:37;;;;;;;5.63;1.73;;;13.40;1.00;;;;;;5091481;28;20119;-64
2023/04/24 11:12:06;;;;;;;3.63;1.40;;;13.00;1.00;;;;;;5059233;28;20035;-71
2023/04/24 11:14:55;;;;;;;3.10;1.35;;;12.60;1.00;;;;;;5057654;28;20036;-67
2023/04/24 11:17:30;;;;;;;3.25;1.40;;;13.20;1.00;;;;;;5058514;28;20040;-67
2023/04/24 11:20:23;;;;;;;3.70;1.05;;;13.90;1.00;;;;;;5041106;28;20040;-69
2023/04/24 11:22:57;;;;;;;2.42;1.20;;;14.50;1.00;;;;;;5057366;28;20049;-67
2023/04/24 11:25:24;;;;;;;2.22;1.10;;;14.80;1.00;;;;;;5057931;28;20029;-66
2023/04/24 11:28:02;;;;;;;4.80;1.20;;;16.00;1.00;;;;;;5074221;28;20029;-67
2023/04/24 11:30:30;;;;;;;4.75;1.20;;;16.00;99.90;;;;;;5091320;28;20040;-66
2023/04/24 11:33:05;;;;;;;2.40;0.90;;;15.20;1.00;;;;;;5091212;28;20091;-63
2023/04/24 11:35:37;;;;;;;3.50;1.10;;;14.60;1.00;;;;;;5058269;28;20029;-63
2023/04/24 11:38:03;;;;;;;2.25;1.10;;;14.40;1.00;;;;;;5091704;28;20104;-65
2023/04/24 11:40:28;;;;;;;5.28;0.95;;;14.20;1.00;;;;;;5090902;28;20103;-66
2023/04/24 11:42:55;;;;;;;3.40;1.13;;;13.70;1.00;;;;;;5057420;28;20060;-63
2023/04/24 11:45:31;;;;;;;2.95;1.17;;;13.30;1.00;;;;;;5073620;28;20044;-64
2023/04/24 11:47:58;;;;;;;3.67;0.95;;;13.20;1.00;;;;;;5058072;28;20114;-69
2023/04/24 11:50:27;;;;;;;4.93;1.38;;;13.10;1.00;;;;;;5058043;28;20325;-66
2023/04/24 11:52:53;;;;;;;4.07;1.00;;;13.30;1.00;;;;;;5090715;28;20025;-70
2023/04/24 11:55:19;;;;;;;3.40;1.20;;;13.50;1.00;;;;;;5057139;28;20032;-68
2023/04/24 11:57:46;;;;;;;3.63;1.08;;;13.70;1.00;;;;;;5090721;28;20051;-68
2023/04/24 12:00:18;;;;;;;6.50;1.50;;;13.80;1.00;;;;;;5090563;28;20328;-72
2023/04/24 12:02:44;;;;;;;3.67;1.00;;;13.80;1.00;;;;;;5090880;28;20316;-72
2023/04/24 12:05:24;;;;;;;4.35;1.33;;;13.90;1.00;;;;;;5057668;28;20144;-66
2023/04/24 12:07:50;;;;;;;5.47;1.25;;;14.60;1.00;;;;;;5090936;28;20419;-70
2023/04/24 12:10:21;;;;;;;6.53;1.50;;;14.60;1.00;;;;;;5057624;28;20089;-70
2023/04/24 12:12:50;;;;;;;7.20;1.83;;;14.50;1.00;;;;;;5091120;28;20427;-71
2023/04/24 12:15:17;;;;;;;5.00;1.40;;;14.60;1.00;;;;;;5090466;28;20035;-69
2023/04/24 12:17:43;;;;;;;4.20;1.30;;;15.10;1.00;;;;;;5057865;28;20025;-63
2023/04/24 12:20:09;;;;;;;2.08;1.10;;;15.50;1.00;;;;;;5057542;28;20382;-69
2023/04/24 12:22:55;;;;;;;5.43;1.33;;;15.60;1.00;;;;;;5073271;28;20132;-70
2023/04/24 12:25:23;;;;;;;6.53;1.30;;;15.50;1.00;;;;;;5056707;28;20039;-68
2023/04/24 12:28:04;;;;;;;3.00;1.20;;;15.40;1.00;;;;;;5057412;28;20028;-69
2023/04/24 12:30:32;;;;;;;3.75;1.33;;;14.90;1.00;;;;;;5057305;28;20067;-69
2023/04/24 12:33:00;;;;;;;4.55;1.63;;;15.00;1.00;;;;;;5057302;28;20334;-70
2023/04/24 12:35:28;;;;;;;5.78;1.23;;;14.90;1.00;;;;;;5090063;28;20033;-72
2023/04/24 12:37:54;;;;;;;6.38;1.60;;;15.10;1.00;;;;;;5073171;28;20335;-66
2023/04/24 12:40:21;;;;;;;3.67;1.13;;;15.30;1.00;;;;;;5089872;28;20186;-66
2023/04/24 12:42:51;;;;;;;7.88;1.55;;;15.00;1.00;;;;;;5072849;28;20037;-68
2023/04/24 12:45:18;;;;;;;4.35;1.50;;;14.70;1.00;;;;;;5057065;28;20033;-70